sensor_id;sensor_type;location;lat;lon;timestamp;temperature;humidity
30244;DHT22;64022;53.652;9.792;2022-11-21T00:00:49;20.30;69.50
30244;DHT22;64022;53.652;9.792;2022-11-21T00:03:15;20.20;69.40
30244;DHT22;64022;53.652;9.792;2022-11-21T00:05:43;20.20;69.40
30244;DHT22;64022;53.652;9.792;2022-11-21T00:08:10;20.20;69.40
30244;DHT22;64022;53.652;9.792;2022-11-21T00:10:36;20.20;69.50
30244;DHT22;64022;53.652;9.792;2022-11-21T00:13:02;20.20;69.50
30244;DHT22;64022;53.652;9.792;2022-11-21T00:15:28;20.30;69.50
30244;DHT22;64022;53.652;9.792;2022-11-21T00:17:53;20.30;69.50
30244;DHT22;64022;53.652;9.792;2022-11-21T00:20:20;20.30;69.50
30244;DHT22;64022;53.652;9.792;2022-11-21T00:22:46;20.30;69.50
30244;DHT22;64022;53.652;9.792;2022-11-21T00:25:12;20.30;69.50
30244;DHT22;64022;53.652;9.792;2022-11-21T00:27:38;20.20;69.40
30244;DHT22;64022;53.652;9.792;2022-11-21T00:30:06;20.20;69.40
30244;DHT22;64022;53.652;9.792;2022-11-21T00:32:32;20.20;69.40
30244;DHT22;64022;53.652;9.792;2022-11-21T00:34:58;20.20;69.50
30244;DHT22;64022;53.652;9.792;2022-11-21T00:37:23;20.30;69.50
30244;DHT22;64022;53.652;9.792;2022-11-21T00:39:49;20.30;69.50
30244;DHT22;64022;53.652;9.792;2022-11-21T00:42:14;20.30;69.50
30244;DHT22;64022;53.652;9.792;2022-11-21T00:44:40;20.20;69.50
30244;DHT22;64022;53.652;9.792;2022-11-21T00:47:05;20.20;69.50
30244;DHT22;64022;53.652;9.792;2022-11-21T00:49:31;20.20;69.60
30244;DHT22;64022;53.652;9.792;2022-11-21T00:51:56;20.20;69.60
30244;DHT22;64022;53.652;9.792;2022-11-21T00:54:22;20.20;69.70
30244;DHT22;64022;53.652;9.792;2022-11-21T00:56:47;20.20;69.70
30244;DHT22;64022;53.652;9.792;2022-11-21T00:59:13;20.20;69.70
30244;DHT22;64022;53.652;9.792;2022-11-21T01:01:38;20.20;69.70
30244;DHT22;64022;53.652;9.792;2022-11-21T01:04:04;20.20;69.80
30244;DHT22;64022;53.652;9.792;2022-11-21T01:06:30;20.20;69.80
30244;DHT22;64022;53.652;9.792;2022-11-21T01:08:55;20.20;69.80
30244;DHT22;64022;53.652;9.792;2022-11-21T01:11:21;20.20;69.80
30244;DHT22;64022;53.652;9.792;2022-11-21T01:13:47;20.20;69.80
30244;DHT22;64022;53.652;9.792;2022-11-21T01:16:16;20.30;69.80
30244;DHT22;64022;53.652;9.792;2022-11-21T01:18:42;20.20;69.80
30244;DHT22;64022;53.652;9.792;2022-11-21T01:21:13;20.20;69.80
30244;DHT22;64022;53.652;9.792;2022-11-21T01:23:39;20.30;69.80
30244;DHT22;64022;53.652;9.792;2022-11-21T01:26:09;20.20;69.80
30244;DHT22;64022;53.652;9.792;2022-11-21T01:28:35;20.20;69.80
30244;DHT22;64022;53.652;9.792;2022-11-21T01:31:11;20.20;69.80
30244;DHT22;64022;53.652;9.792;2022-11-21T01:33:37;20.30;69.70
30244;DHT22;64022;53.652;9.792;2022-11-21T01:38:44;20.20;69.70
30244;DHT22;64022;53.652;9.792;2022-11-21T01:41:11;20.20;69.80
30244;DHT22;64022;53.652;9.792;2022-11-21T01:43:37;20.20;69.90
30244;DHT22;64022;53.652;9.792;2022-11-21T01:46:17;20.20;69.80
30244;DHT22;64022;53.652;9.792;2022-11-21T01:49:12;20.20;69.80
30244;DHT22;64022;53.652;9.792;2022-11-21T01:54:40;20.30;69.80
30244;DHT22;64022;53.652;9.792;2022-11-21T01:57:17;20.30;69.90
30244;DHT22;64022;53.652;9.792;2022-11-21T02:02:30;20.30;69.80
30244;DHT22;64022;53.652;9.792;2022-11-21T02:04:59;20.30;69.80
30244;DHT22;64022;53.652;9.792;2022-11-21T02:07:25;20.30;69.80
30244;DHT22;64022;53.652;9.792;2022-11-21T02:09:56;20.30;69.80
30244;DHT22;64022;53.652;9.792;2022-11-21T02:12:33;20.30;69.70
30244;DHT22;64022;53.652;9.792;2022-11-21T02:15:00;20.30;69.70
30244;DHT22;64022;53.652;9.792;2022-11-21T02:17:29;20.30;69.70
30244;DHT22;64022;53.652;9.792;2022-11-21T02:19:59;20.30;69.70
30244;DHT22;64022;53.652;9.792;2022-11-21T02:22:35;20.30;69.70
30244;DHT22;64022;53.652;9.792;2022-11-21T02:25:06;20.30;69.70
30244;DHT22;64022;53.652;9.792;2022-11-21T02:27:32;20.30;69.70
30244;DHT22;64022;53.652;9.792;2022-11-21T02:30:00;20.30;69.70
30244;DHT22;64022;53.652;9.792;2022-11-21T02:32:41;20.30;69.70
30244;DHT22;64022;53.652;9.792;2022-11-21T02:35:11;20.30;69.70
30244;DHT22;64022;53.652;9.792;2022-11-21T02:37:37;20.30;70.30
30244;DHT22;64022;53.652;9.792;2022-11-21T02:40:08;20.30;69.70
30244;DHT22;64022;53.652;9.792;2022-11-21T02:43:09;20.30;69.70
30244;DHT22;64022;53.652;9.792;2022-11-21T02:45:40;20.30;69.60
30244;DHT22;64022;53.652;9.792;2022-11-21T02:48:06;20.30;69.80
30244;DHT22;64022;53.652;9.792;2022-11-21T02:50:34;20.30;69.80
30244;DHT22;64022;53.652;9.792;2022-11-21T02:53:01;20.30;69.70
30244;DHT22;64022;53.652;9.792;2022-11-21T02:55:27;20.30;69.70
30244;DHT22;64022;53.652;9.792;2022-11-21T02:57:53;20.30;69.40
30244;DHT22;64022;53.652;9.792;2022-11-21T03:00:19;20.30;69.90
30244;DHT22;64022;53.652;9.792;2022-11-21T03:02:45;20.30;69.80
30244;DHT22;64022;53.652;9.792;2022-11-21T03:05:14;20.30;69.80
30244;DHT22;64022;53.652;9.792;2022-11-21T03:07:40;20.30;69.80
30244;DHT22;64022;53.652;9.792;2022-11-21T03:10:05;20.30;69.80
30244;DHT22;64022;53.652;9.792;2022-11-21T03:12:31;20.30;69.80
30244;DHT22;64022;53.652;9.792;2022-11-21T03:14:57;20.30;69.70
30244;DHT22;64022;53.652;9.792;2022-11-21T03:17:22;20.30;69.80
30244;DHT22;64022;53.652;9.792;2022-11-21T03:19:48;20.30;69.70
30244;DHT22;64022;53.652;9.792;2022-11-21T03:22:14;20.30;69.80
30244;DHT22;64022;53.652;9.792;2022-11-21T03:24:39;20.30;69.80
30244;DHT22;64022;53.652;9.792;2022-11-21T03:27:05;20.30;69.80
30244;DHT22;64022;53.652;9.792;2022-11-21T03:29:31;20.30;69.80
30244;DHT22;64022;53.652;9.792;2022-11-21T03:31:56;20.30;69.80
30244;DHT22;64022;53.652;9.792;2022-11-21T03:34:22;20.30;69.80
30244;DHT22;64022;53.652;9.792;2022-11-21T03:36:49;20.30;69.80
30244;DHT22;64022;53.652;9.792;2022-11-21T03:39:14;20.30;69.70
30244;DHT22;64022;53.652;9.792;2022-11-21T03:41:40;20.30;69.70
30244;DHT22;64022;53.652;9.792;2022-11-21T03:44:10;20.30;69.70
30244;DHT22;64022;53.652;9.792;2022-11-21T03:46:39;20.30;69.70
30244;DHT22;64022;53.652;9.792;2022-11-21T03:49:06;20.30;69.70
30244;DHT22;64022;53.652;9.792;2022-11-21T03:51:32;20.30;69.70
30244;DHT22;64022;53.652;9.792;2022-11-21T03:53:58;20.30;69.70
30244;DHT22;64022;53.652;9.792;2022-11-21T03:56:23;20.30;69.70
30244;DHT22;64022;53.652;9.792;2022-11-21T03:58:49;20.30;69.70
30244;DHT22;64022;53.652;9.792;2022-11-21T04:01:15;20.30;69.70
30244;DHT22;64022;53.652;9.792;2022-11-21T04:03:41;20.30;69.70
30244;DHT22;64022;53.652;9.792;2022-11-21T04:06:08;20.30;69.70
30244;DHT22;64022;53.652;9.792;2022-11-21T04:08:34;20.30;69.70
30244;DHT22;64022;53.652;9.792;2022-11-21T04:10:59;20.40;69.70
30244;DHT22;64022;53.652;9.792;2022-11-21T04:13:25;20.30;69.70
30244;DHT22;64022;53.652;9.792;2022-11-21T04:15:50;20.30;69.70
30244;DHT22;64022;53.652;9.792;2022-11-21T04:18:16;20.30;69.70
30244;DHT22;64022;53.652;9.792;2022-11-21T04:20:42;20.30;69.70
30244;DHT22;64022;53.652;9.792;2022-11-21T04:23:07;20.30;69.70
30244;DHT22;64022;53.652;9.792;2022-11-21T04:25:33;20.30;69.80
30244;DHT22;64022;53.652;9.792;2022-11-21T04:28:00;20.30;69.80
30244;DHT22;64022;53.652;9.792;2022-11-21T04:30:27;20.40;69.80
30244;DHT22;64022;53.652;9.792;2022-11-21T04:32:53;20.30;63.40
30244;DHT22;64022;53.652;9.792;2022-11-21T04:35:20;20.00;63.50
30244;DHT22;64022;53.652;9.792;2022-11-21T04:37:46;19.80;65.30
30244;DHT22;64022;53.652;9.792;2022-11-21T04:40:12;19.80;66.00
30244;DHT22;64022;53.652;9.792;2022-11-21T04:42:42;19.80;66.40
30244;DHT22;64022;53.652;9.792;2022-11-21T04:45:08;19.80;66.70
30244;DHT22;64022;53.652;9.792;2022-11-21T04:47:38;19.90;66.80
30244;DHT22;64022;53.652;9.792;2022-11-21T04:50:04;19.90;66.90
30244;DHT22;64022;53.652;9.792;2022-11-21T04:52:30;19.90;66.90
30244;DHT22;64022;53.652;9.792;2022-11-21T04:54:56;19.90;67.10
30244;DHT22;64022;53.652;9.792;2022-11-21T04:57:22;20.00;67.10
30244;DHT22;64022;53.652;9.792;2022-11-21T04:59:47;20.00;67.20
30244;DHT22;64022;53.652;9.792;2022-11-21T05:02:13;20.00;67.20
30244;DHT22;64022;53.652;9.792;2022-11-21T05:04:38;20.00;67.30
30244;DHT22;64022;53.652;9.792;2022-11-21T05:07:04;20.10;67.40
30244;DHT22;64022;53.652;9.792;2022-11-21T05:09:30;20.00;67.30
30244;DHT22;64022;53.652;9.792;2022-11-21T05:11:55;20.00;67.40
30244;DHT22;64022;53.652;9.792;2022-11-21T05:14:39;20.10;67.50
30244;DHT22;64022;53.652;9.792;2022-11-21T05:17:05;20.10;67.60
30244;DHT22;64022;53.652;9.792;2022-11-21T05:19:30;20.10;67.70
30244;DHT22;64022;53.652;9.792;2022-11-21T05:21:56;20.10;67.70
30244;DHT22;64022;53.652;9.792;2022-11-21T05:24:21;20.10;67.70
30244;DHT22;64022;53.652;9.792;2022-11-21T05:26:47;20.10;67.70
30244;DHT22;64022;53.652;9.792;2022-11-21T05:29:12;20.10;67.70
30244;DHT22;64022;53.652;9.792;2022-11-21T05:31:38;20.10;67.80
30244;DHT22;64022;53.652;9.792;2022-11-21T05:34:04;20.20;67.80
30244;DHT22;64022;53.652;9.792;2022-11-21T05:36:29;20.20;67.90
30244;DHT22;64022;53.652;9.792;2022-11-21T05:38:55;20.20;67.90
30244;DHT22;64022;53.652;9.792;2022-11-21T05:41:20;20.20;67.90
30244;DHT22;64022;53.652;9.792;2022-11-21T05:43:46;20.20;67.90
30244;DHT22;64022;53.652;9.792;2022-11-21T05:46:17;20.20;67.90
30244;DHT22;64022;53.652;9.792;2022-11-21T05:48:43;20.20;68.00
30244;DHT22;64022;53.652;9.792;2022-11-21T05:51:09;20.20;68.00
30244;DHT22;64022;53.652;9.792;2022-11-21T05:53:35;20.30;68.00
30244;DHT22;64022;53.652;9.792;2022-11-21T05:56:05;20.30;68.00
30244;DHT22;64022;53.652;9.792;2022-11-21T05:58:32;20.30;68.10
30244;DHT22;64022;53.652;9.792;2022-11-21T06:00:58;20.30;68.10
30244;DHT22;64022;53.652;9.792;2022-11-21T06:03:25;20.30;68.10
30244;DHT22;64022;53.652;9.792;2022-11-21T06:05:51;20.30;68.20
30244;DHT22;64022;53.652;9.792;2022-11-21T06:08:17;20.30;68.20
30244;DHT22;64022;53.652;9.792;2022-11-21T06:10:43;20.30;68.20
30244;DHT22;64022;53.652;9.792;2022-11-21T06:13:08;20.30;68.20
30244;DHT22;64022;53.652;9.792;2022-11-21T06:15:58;20.30;68.20
30244;DHT22;64022;53.652;9.792;2022-11-21T06:18:24;20.30;68.30
30244;DHT22;64022;53.652;9.792;2022-11-21T06:20:50;20.30;68.30
30244;DHT22;64022;53.652;9.792;2022-11-21T06:23:16;20.30;68.30
30244;DHT22;64022;53.652;9.792;2022-11-21T06:25:42;20.30;68.40
30244;DHT22;64022;53.652;9.792;2022-11-21T06:28:09;20.30;68.40
30244;DHT22;64022;53.652;9.792;2022-11-21T06:30:35;20.30;68.40
30244;DHT22;64022;53.652;9.792;2022-11-21T06:33:05;20.30;68.40
30244;DHT22;64022;53.652;9.792;2022-11-21T06:35:31;20.30;68.40
30244;DHT22;64022;53.652;9.792;2022-11-21T06:37:57;20.30;68.50
30244;DHT22;64022;53.652;9.792;2022-11-21T06:40:23;20.30;68.40
30244;DHT22;64022;53.652;9.792;2022-11-21T06:42:49;20.20;68.40
30244;DHT22;64022;53.652;9.792;2022-11-21T06:45:14;20.30;68.50
30244;DHT22;64022;53.652;9.792;2022-11-21T06:47:40;20.30;68.50
30244;DHT22;64022;53.652;9.792;2022-11-21T06:50:06;20.30;68.50
30244;DHT22;64022;53.652;9.792;2022-11-21T06:52:32;20.30;68.50
30244;DHT22;64022;53.652;9.792;2022-11-21T06:54:58;20.30;68.60
30244;DHT22;64022;53.652;9.792;2022-11-21T06:57:24;20.30;68.60
30244;DHT22;64022;53.652;9.792;2022-11-21T06:59:49;20.30;68.70
30244;DHT22;64022;53.652;9.792;2022-11-21T07:02:15;20.30;68.70
30244;DHT22;64022;53.652;9.792;2022-11-21T07:04:40;20.30;68.70
30244;DHT22;64022;53.652;9.792;2022-11-21T07:07:06;20.30;68.70
30244;DHT22;64022;53.652;9.792;2022-11-21T07:09:32;20.30;68.70
30244;DHT22;64022;53.652;9.792;2022-11-21T07:11:58;20.30;68.80
30244;DHT22;64022;53.652;9.792;2022-11-21T07:14:44;20.30;68.80
30244;DHT22;64022;53.652;9.792;2022-11-21T07:17:13;20.30;68.80
30244;DHT22;64022;53.652;9.792;2022-11-21T07:19:39;20.30;68.80
30244;DHT22;64022;53.652;9.792;2022-11-21T07:22:05;20.30;68.80
30244;DHT22;64022;53.652;9.792;2022-11-21T07:24:32;20.30;68.80
30244;DHT22;64022;53.652;9.792;2022-11-21T07:26:58;20.30;69.30
30244;DHT22;64022;53.652;9.792;2022-11-21T07:29:23;20.30;68.80
30244;DHT22;64022;53.652;9.792;2022-11-21T07:31:49;20.30;68.80
30244;DHT22;64022;53.652;9.792;2022-11-21T07:34:14;20.30;68.80
30244;DHT22;64022;53.652;9.792;2022-11-21T07:36:40;20.30;68.80
30244;DHT22;64022;53.652;9.792;2022-11-21T07:39:05;20.30;68.80
30244;DHT22;64022;53.652;9.792;2022-11-21T07:41:31;20.30;68.80
30244;DHT22;64022;53.652;9.792;2022-11-21T07:43:57;20.30;68.80
30244;DHT22;64022;53.652;9.792;2022-11-21T07:46:22;20.30;67.50
30244;DHT22;64022;53.652;9.792;2022-11-21T07:48:48;20.30;66.40
30244;DHT22;64022;53.652;9.792;2022-11-21T07:51:14;20.10;65.50
30244;DHT22;64022;53.652;9.792;2022-11-21T07:53:39;20.10;65.00
30244;DHT22;64022;53.652;9.792;2022-11-21T07:56:05;19.90;65.50
30244;DHT22;64022;53.652;9.792;2022-11-21T07:58:33;19.90;65.90
30244;DHT22;64022;53.652;9.792;2022-11-21T08:01:02;19.90;66.20
30244;DHT22;64022;53.652;9.792;2022-11-21T08:03:28;19.90;66.30
30244;DHT22;64022;53.652;9.792;2022-11-21T08:05:54;20.00;66.40
30244;DHT22;64022;53.652;9.792;2022-11-21T08:08:20;20.00;66.50
30244;DHT22;64022;53.652;9.792;2022-11-21T08:10:45;20.00;66.50
30244;DHT22;64022;53.652;9.792;2022-11-21T08:13:12;20.00;66.50
30244;DHT22;64022;53.652;9.792;2022-11-21T08:15:38;20.00;66.50
30244;DHT22;64022;53.652;9.792;2022-11-21T08:18:08;20.10;66.60
30244;DHT22;64022;53.652;9.792;2022-11-21T08:20:34;20.10;66.70
30244;DHT22;64022;53.652;9.792;2022-11-21T08:23:00;20.10;66.70
30244;DHT22;64022;53.652;9.792;2022-11-21T08:25:26;20.10;66.70
30244;DHT22;64022;53.652;9.792;2022-11-21T08:27:55;20.10;66.70
30244;DHT22;64022;53.652;9.792;2022-11-21T08:30:21;20.10;66.70
30244;DHT22;64022;53.652;9.792;2022-11-21T08:32:46;20.20;66.80
30244;DHT22;64022;53.652;9.792;2022-11-21T08:35:12;20.20;66.80
30244;DHT22;64022;53.652;9.792;2022-11-21T08:37:37;20.20;66.80
30244;DHT22;64022;53.652;9.792;2022-11-21T08:40:03;20.20;66.90
30244;DHT22;64022;53.652;9.792;2022-11-21T08:42:29;20.30;66.90
30244;DHT22;64022;53.652;9.792;2022-11-21T08:44:54;20.20;66.90
30244;DHT22;64022;53.652;9.792;2022-11-21T08:47:20;20.30;66.90
30244;DHT22;64022;53.652;9.792;2022-11-21T08:49:46;20.30;67.00
30244;DHT22;64022;53.652;9.792;2022-11-21T08:52:13;20.30;67.00
30244;DHT22;64022;53.652;9.792;2022-11-21T08:54:38;20.30;67.00
30244;DHT22;64022;53.652;9.792;2022-11-21T08:57:04;20.30;67.10
30244;DHT22;64022;53.652;9.792;2022-11-21T08:59:29;20.30;67.60
30244;DHT22;64022;53.652;9.792;2022-11-21T09:01:55;20.30;67.10
30244;DHT22;64022;53.652;9.792;2022-11-21T09:04:21;20.40;67.20
30244;DHT22;64022;53.652;9.792;2022-11-21T09:06:47;20.40;67.20
30244;DHT22;64022;53.652;9.792;2022-11-21T09:09:12;20.40;67.20
30244;DHT22;64022;53.652;9.792;2022-11-21T09:11:38;20.40;67.30
30244;DHT22;64022;53.652;9.792;2022-11-21T09:14:03;20.40;67.30
30244;DHT22;64022;53.652;9.792;2022-11-21T09:16:47;20.40;67.30
30244;DHT22;64022;53.652;9.792;2022-11-21T09:19:31;20.40;67.30
30244;DHT22;64022;53.652;9.792;2022-11-21T09:21:57;20.40;67.30
30244;DHT22;64022;53.652;9.792;2022-11-21T09:24:22;20.40;67.30
30244;DHT22;64022;53.652;9.792;2022-11-21T09:26:48;20.40;67.40
30244;DHT22;64022;53.652;9.792;2022-11-21T09:29:13;20.40;67.40
30244;DHT22;64022;53.652;9.792;2022-11-21T09:31:43;20.50;67.50
30244;DHT22;64022;53.652;9.792;2022-11-21T09:34:09;20.40;67.50
30244;DHT22;64022;53.652;9.792;2022-11-21T09:36:34;20.50;67.50
30244;DHT22;64022;53.652;9.792;2022-11-21T09:39:00;20.50;67.60
30244;DHT22;64022;53.652;9.792;2022-11-21T09:41:54;20.40;67.50
30244;DHT22;64022;53.652;9.792;2022-11-21T09:44:43;20.50;67.50
30244;DHT22;64022;53.652;9.792;2022-11-21T09:47:28;20.50;67.60
30244;DHT22;64022;53.652;9.792;2022-11-21T09:53:00;20.50;67.60
30244;DHT22;64022;53.652;9.792;2022-11-21T09:58:04;20.40;67.80
30244;DHT22;64022;53.652;9.792;2022-11-21T10:00:31;20.40;67.70
30244;DHT22;64022;53.652;9.792;2022-11-21T10:02:57;20.40;67.80
30244;DHT22;64022;53.652;9.792;2022-11-21T10:11:17;20.50;67.60
30244;DHT22;64022;53.652;9.792;2022-11-21T10:14:05;20.50;67.80
30244;DHT22;64022;53.652;9.792;2022-11-21T10:22:21;20.40;67.90
30244;DHT22;64022;53.652;9.792;2022-11-21T10:24:54;20.40;67.80
30244;DHT22;64022;53.652;9.792;2022-11-21T10:27:35;20.40;67.90
30244;DHT22;64022;53.652;9.792;2022-11-21T10:30:14;20.40;67.90
30244;DHT22;64022;53.652;9.792;2022-11-21T10:32:46;20.40;67.90
30244;DHT22;64022;53.652;9.792;2022-11-21T10:35:35;20.40;67.90
30244;DHT22;64022;53.652;9.792;2022-11-21T10:38:00;20.40;67.90
30244;DHT22;64022;53.652;9.792;2022-11-21T10:40:47;20.40;67.60
30244;DHT22;64022;53.652;9.792;2022-11-21T10:43:30;20.40;68.00
30244;DHT22;64022;53.652;9.792;2022-11-21T10:46:17;20.40;68.00
30244;DHT22;64022;53.652;9.792;2022-11-21T10:48:53;20.40;68.10
30244;DHT22;64022;53.652;9.792;2022-11-21T10:54:13;20.40;67.90
30244;DHT22;64022;53.652;9.792;2022-11-21T10:57:16;20.40;68.10
30244;DHT22;64022;53.652;9.792;2022-11-21T10:59:59;20.40;68.00
30244;DHT22;64022;53.652;9.792;2022-11-21T11:02:26;20.40;68.00
30244;DHT22;64022;53.652;9.792;2022-11-21T11:07:40;20.40;68.00
30244;DHT22;64022;53.652;9.792;2022-11-21T11:10:21;20.50;68.20
30244;DHT22;64022;53.652;9.792;2022-11-21T11:12:48;20.50;68.10
30244;DHT22;64022;53.652;9.792;2022-11-21T11:15:33;20.50;68.20
30244;DHT22;64022;53.652;9.792;2022-11-21T11:18:02;20.50;68.20
30244;DHT22;64022;53.652;9.792;2022-11-21T11:20:35;20.50;68.20
30244;DHT22;64022;53.652;9.792;2022-11-21T11:23:15;20.50;68.20
30244;DHT22;64022;53.652;9.792;2022-11-21T11:25:51;20.50;68.20
30244;DHT22;64022;53.652;9.792;2022-11-21T11:28:16;20.60;68.40
30244;DHT22;64022;53.652;9.792;2022-11-21T11:30:46;20.50;68.40
30244;DHT22;64022;53.652;9.792;2022-11-21T11:33:41;20.60;68.60
30244;DHT22;64022;53.652;9.792;2022-11-21T11:36:27;20.60;68.30
30244;DHT22;64022;53.652;9.792;2022-11-21T11:38:57;20.50;68.60
30244;DHT22;64022;53.652;9.792;2022-11-21T11:44:24;20.60;68.60
30244;DHT22;64022;53.652;9.792;2022-11-21T11:47:22;20.60;68.70
30244;DHT22;64022;53.652;9.792;2022-11-21T11:50:01;20.60;68.80
30244;DHT22;64022;53.652;9.792;2022-11-21T11:53:00;20.60;68.90
30244;DHT22;64022;53.652;9.792;2022-11-21T11:57:55;20.60;69.00
30244;DHT22;64022;53.652;9.792;2022-11-21T12:00:37;20.60;69.00
30244;DHT22;64022;53.652;9.792;2022-11-21T12:04:01;20.60;68.90
30244;DHT22;64022;53.652;9.792;2022-11-21T12:06:27;20.60;68.90
30244;DHT22;64022;53.652;9.792;2022-11-21T12:08:58;20.60;69.00
30244;DHT22;64022;53.652;9.792;2022-11-21T12:14:18;20.60;69.20
30244;DHT22;64022;53.652;9.792;2022-11-21T12:17:07;20.50;69.10
30244;DHT22;64022;53.652;9.792;2022-11-21T12:19:34;20.50;69.20
30244;DHT22;64022;53.652;9.792;2022-11-21T12:22:00;20.50;69.20
30244;DHT22;64022;53.652;9.792;2022-11-21T12:24:31;20.50;68.80
30244;DHT22;64022;53.652;9.792;2022-11-21T12:27:09;20.50;69.40
30244;DHT22;64022;53.652;9.792;2022-11-21T12:29:49;20.60;69.40
30244;DHT22;64022;53.652;9.792;2022-11-21T12:32:36;20.50;69.40
30244;DHT22;64022;53.652;9.792;2022-11-21T12:43:40;20.50;69.40
30244;DHT22;64022;53.652;9.792;2022-11-21T12:46:18;20.50;69.20
30244;DHT22;64022;53.652;9.792;2022-11-21T12:52:21;20.50;69.20
30244;DHT22;64022;53.652;9.792;2022-11-21T13:04:03;20.50;69.50
30244;DHT22;64022;53.652;9.792;2022-11-21T13:06:37;20.50;69.30
30244;DHT22;64022;53.652;9.792;2022-11-21T13:09:12;20.50;69.50
30244;DHT22;64022;53.652;9.792;2022-11-21T13:12:15;20.50;69.60
30244;DHT22;64022;53.652;9.792;2022-11-21T13:17:51;20.50;69.40
30244;DHT22;64022;53.652;9.792;2022-11-21T13:22:52;20.50;69.60
30244;DHT22;64022;53.652;9.792;2022-11-21T13:30:54;20.50;69.40
30244;DHT22;64022;53.652;9.792;2022-11-21T13:36:11;20.50;69.50
30244;DHT22;64022;53.652;9.792;2022-11-21T13:46:58;20.50;69.60
30244;DHT22;64022;53.652;9.792;2022-11-21T13:49:39;20.50;69.70
30244;DHT22;64022;53.652;9.792;2022-11-21T13:52:24;20.50;69.60
30244;DHT22;64022;53.652;9.792;2022-11-21T13:57:51;20.50;69.50
30244;DHT22;64022;53.652;9.792;2022-11-21T14:10:47;20.50;69.80
30244;DHT22;64022;53.652;9.792;2022-11-21T14:13:26;20.50;69.80
30244;DHT22;64022;53.652;9.792;2022-11-21T14:16:19;20.50;69.70
30244;DHT22;64022;53.652;9.792;2022-11-21T14:18:47;20.50;69.60
30244;DHT22;64022;53.652;9.792;2022-11-21T14:21:23;20.50;69.80
30244;DHT22;64022;53.652;9.792;2022-11-21T14:23:53;20.50;69.80
30244;DHT22;64022;53.652;9.792;2022-11-21T14:26:20;20.50;69.80
30244;DHT22;64022;53.652;9.792;2022-11-21T14:28:46;20.50;69.80
30244;DHT22;64022;53.652;9.792;2022-11-21T14:31:12;20.50;69.40
30244;DHT22;64022;53.652;9.792;2022-11-21T14:36:20;20.50;69.80
30244;DHT22;64022;53.652;9.792;2022-11-21T14:38:48;20.50;69.70
30244;DHT22;64022;53.652;9.792;2022-11-21T14:46:39;20.50;69.60
30244;DHT22;64022;53.652;9.792;2022-11-21T14:51:37;20.50;69.70
30244;DHT22;64022;53.652;9.792;2022-11-21T14:54:02;20.50;69.70
30244;DHT22;64022;53.652;9.792;2022-11-21T14:56:30;20.50;69.70
30244;DHT22;64022;53.652;9.792;2022-11-21T14:58:57;20.50;69.60
30244;DHT22;64022;53.652;9.792;2022-11-21T15:04:00;20.50;69.60
30244;DHT22;64022;53.652;9.792;2022-11-21T15:06:27;20.50;69.60
30244;DHT22;64022;53.652;9.792;2022-11-21T15:08:54;20.50;69.60
30244;DHT22;64022;53.652;9.792;2022-11-21T15:11:23;20.50;69.60
30244;DHT22;64022;53.652;9.792;2022-11-21T15:13:53;20.50;69.60
30244;DHT22;64022;53.652;9.792;2022-11-21T15:16:21;20.50;69.60
30244;DHT22;64022;53.652;9.792;2022-11-21T15:18:47;20.50;69.60
30244;DHT22;64022;53.652;9.792;2022-11-21T15:21:14;20.50;69.60
30244;DHT22;64022;53.652;9.792;2022-11-21T15:23:41;20.50;69.60
30244;DHT22;64022;53.652;9.792;2022-11-21T15:26:32;20.50;69.60
30244;DHT22;64022;53.652;9.792;2022-11-21T15:29:00;20.50;69.40
30244;DHT22;64022;53.652;9.792;2022-11-21T15:31:26;20.40;69.60
30244;DHT22;64022;53.652;9.792;2022-11-21T15:33:58;20.50;69.70
30244;DHT22;64022;53.652;9.792;2022-11-21T15:36:25;20.50;69.70
30244;DHT22;64022;53.652;9.792;2022-11-21T15:38:55;20.50;69.70
30244;DHT22;64022;53.652;9.792;2022-11-21T15:41:29;20.50;69.70
30244;DHT22;64022;53.652;9.792;2022-11-21T15:46:31;20.50;68.30
30244;DHT22;64022;53.652;9.792;2022-11-21T15:49:02;20.40;68.90
30244;DHT22;64022;53.652;9.792;2022-11-21T15:51:43;20.40;69.10
30244;DHT22;64022;53.652;9.792;2022-11-21T15:54:21;20.40;69.10
30244;DHT22;64022;53.652;9.792;2022-11-21T15:56:47;20.40;69.20
30244;DHT22;64022;53.652;9.792;2022-11-21T15:59:13;20.40;69.20
30244;DHT22;64022;53.652;9.792;2022-11-21T16:01:39;20.40;69.20
30244;DHT22;64022;53.652;9.792;2022-11-21T16:04:07;20.40;69.20
30244;DHT22;64022;53.652;9.792;2022-11-21T16:06:33;20.40;69.80
30244;DHT22;64022;53.652;9.792;2022-11-21T16:08:59;20.40;69.30
30244;DHT22;64022;53.652;9.792;2022-11-21T16:11:33;20.40;69.20
30244;DHT22;64022;53.652;9.792;2022-11-21T16:14:01;20.40;69.30
30244;DHT22;64022;53.652;9.792;2022-11-21T16:16:29;20.40;69.30
30244;DHT22;64022;53.652;9.792;2022-11-21T16:18:56;20.40;69.30
30244;DHT22;64022;53.652;9.792;2022-11-21T16:21:22;20.40;69.30
30244;DHT22;64022;53.652;9.792;2022-11-21T16:23:47;20.40;69.30
30244;DHT22;64022;53.652;9.792;2022-11-21T16:26:13;20.40;69.30
30244;DHT22;64022;53.652;9.792;2022-11-21T16:28:39;20.40;69.30
30244;DHT22;64022;53.652;9.792;2022-11-21T16:31:05;20.40;69.40
30244;DHT22;64022;53.652;9.792;2022-11-21T16:33:31;20.40;69.40
30244;DHT22;64022;53.652;9.792;2022-11-21T16:35:57;20.40;69.40
30244;DHT22;64022;53.652;9.792;2022-11-21T16:38:24;20.40;69.40
30244;DHT22;64022;53.652;9.792;2022-11-21T16:41:00;20.40;69.40
30244;DHT22;64022;53.652;9.792;2022-11-21T16:43:28;20.50;69.40
30244;DHT22;64022;53.652;9.792;2022-11-21T16:45:55;20.40;69.30
30244;DHT22;64022;53.652;9.792;2022-11-21T16:48:22;20.40;69.30
30244;DHT22;64022;53.652;9.792;2022-11-21T16:50:48;20.50;69.50
30244;DHT22;64022;53.652;9.792;2022-11-21T16:53:14;20.50;69.50
30244;DHT22;64022;53.652;9.792;2022-11-21T16:55:41;20.50;69.50
30244;DHT22;64022;53.652;9.792;2022-11-21T16:58:06;20.50;69.50
30244;DHT22;64022;53.652;9.792;2022-11-21T17:00:32;20.50;69.50
30244;DHT22;64022;53.652;9.792;2022-11-21T17:02:59;20.50;69.50
30244;DHT22;64022;53.652;9.792;2022-11-21T17:05:25;20.50;69.50
30244;DHT22;64022;53.652;9.792;2022-11-21T17:07:50;20.50;69.60
30244;DHT22;64022;53.652;9.792;2022-11-21T17:10:16;20.50;69.60
30244;DHT22;64022;53.652;9.792;2022-11-21T17:12:42;20.50;69.70
30244;DHT22;64022;53.652;9.792;2022-11-21T17:15:13;20.50;69.80
30244;DHT22;64022;53.652;9.792;2022-11-21T17:17:39;20.50;69.90
30244;DHT22;64022;53.652;9.792;2022-11-21T17:20:07;20.50;69.90
30244;DHT22;64022;53.652;9.792;2022-11-21T17:22:33;20.60;70.00
30244;DHT22;64022;53.652;9.792;2022-11-21T17:25:00;20.50;70.00
30244;DHT22;64022;53.652;9.792;2022-11-21T17:27:25;20.50;70.00
30244;DHT22;64022;53.652;9.792;2022-11-21T17:29:51;20.50;70.10
30244;DHT22;64022;53.652;9.792;2022-11-21T17:32:17;20.60;70.20
30244;DHT22;64022;53.652;9.792;2022-11-21T17:34:42;20.50;70.20